sensor_id;sensor_type;location;lat;lon;timestamp;temperature;humidity
5870;DHT22;2961;47.702;9.410;2024-01-30T00:00:57;-0.60;99.90
5870;DHT22;2961;47.702;9.410;2024-01-30T00:03:25;-0.60;99.90
5870;DHT22;2961;47.702;9.410;2024-01-30T00:05:52;-0.60;99.90
5870;DHT22;2961;47.702;9.410;2024-01-30T00:08:19;-0.60;99.90
5870;DHT22;2961;47.702;9.410;2024-01-30T00:10:45;-0.60;99.90
5870;DHT22;2961;47.702;9.410;2024-01-30T00:13:12;-0.60;99.90
5870;DHT22;2961;47.702;9.410;2024-01-30T00:15:41;-0.50;99.90
5870;DHT22;2961;47.702;9.410;2024-01-30T00:18:08;-0.60;99.90
5870;DHT22;2961;47.702;9.410;2024-01-30T00:20:36;-0.60;99.90
5870;DHT22;2961;47.702;9.410;2024-01-30T00:23:03;-0.60;99.90
5870;DHT22;2961;47.702;9.410;2024-01-30T00:25:30;-0.60;99.90
5870;DHT22;2961;47.702;9.410;2024-01-30T00:27:58;-0.60;99.90
5870;DHT22;2961;47.702;9.410;2024-01-30T00:30:25;-0.60;99.90
5870;DHT22;2961;47.702;9.410;2024-01-30T00:32:53;-0.60;99.90
5870;DHT22;2961;47.702;9.410;2024-01-30T00:35:19;-0.60;99.90
5870;DHT22;2961;47.702;9.410;2024-01-30T00:37:49;-0.70;99.90
5870;DHT22;2961;47.702;9.410;2024-01-30T00:40:16;-0.70;99.90
5870;DHT22;2961;47.702;9.410;2024-01-30T00:42:43;-0.60;99.90
5870;DHT22;2961;47.702;9.410;2024-01-30T00:45:12;-0.70;99.90
5870;DHT22;2961;47.702;9.410;2024-01-30T00:47:39;-0.80;99.90
5870;DHT22;2961;47.702;9.410;2024-01-30T00:50:07;-0.80;99.90
5870;DHT22;2961;47.702;9.410;2024-01-30T00:52:33;-0.80;99.90
5870;DHT22;2961;47.702;9.410;2024-01-30T00:55:02;-0.80;99.90
5870;DHT22;2961;47.702;9.410;2024-01-30T00:57:29;-0.80;99.90
5870;DHT22;2961;47.702;9.410;2024-01-30T00:59:57;-0.80;99.90
5870;DHT22;2961;47.702;9.410;2024-01-30T01:02:23;-0.80;99.90
5870;DHT22;2961;47.702;9.410;2024-01-30T01:04:50;-0.70;99.90
5870;DHT22;2961;47.702;9.410;2024-01-30T01:07:17;-0.80;99.90
5870;DHT22;2961;47.702;9.410;2024-01-30T01:09:44;-0.90;99.90
5870;DHT22;2961;47.702;9.410;2024-01-30T01:12:12;-0.80;99.90
5870;DHT22;2961;47.702;9.410;2024-01-30T01:14:39;-0.90;99.90
5870;DHT22;2961;47.702;9.410;2024-01-30T01:17:05;-0.90;99.90
5870;DHT22;2961;47.702;9.410;2024-01-30T01:19:32;-0.90;99.90
5870;DHT22;2961;47.702;9.410;2024-01-30T01:21:59;-0.90;99.90
5870;DHT22;2961;47.702;9.410;2024-01-30T01:24:26;-0.90;99.90
5870;DHT22;2961;47.702;9.410;2024-01-30T01:26:52;-1.00;99.90
5870;DHT22;2961;47.702;9.410;2024-01-30T01:29:20;-1.10;99.90
5870;DHT22;2961;47.702;9.410;2024-01-30T01:31:54;-1.10;99.90
5870;DHT22;2961;47.702;9.410;2024-01-30T01:34:21;-1.00;99.90
5870;DHT22;2961;47.702;9.410;2024-01-30T01:36:48;-1.10;99.90
5870;DHT22;2961;47.702;9.410;2024-01-30T01:39:15;-1.10;99.90
5870;DHT22;2961;47.702;9.410;2024-01-30T01:41:41;-1.20;99.90
5870;DHT22;2961;47.702;9.410;2024-01-30T01:44:08;-1.20;99.90
5870;DHT22;2961;47.702;9.410;2024-01-30T01:46:37;-1.10;99.90
5870;DHT22;2961;47.702;9.410;2024-01-30T01:49:05;-1.10;99.90
5870;DHT22;2961;47.702;9.410;2024-01-30T01:51:34;-1.10;99.90
5870;DHT22;2961;47.702;9.410;2024-01-30T01:54:03;-1.10;99.90
5870;DHT22;2961;47.702;9.410;2024-01-30T01:56:30;-1.20;99.90
5870;DHT22;2961;47.702;9.410;2024-01-30T01:59:00;-1.10;99.90
5870;DHT22;2961;47.702;9.410;2024-01-30T02:01:31;-1.10;99.90
5870;DHT22;2961;47.702;9.410;2024-01-30T02:04:00;-1.10;99.90
5870;DHT22;2961;47.702;9.410;2024-01-30T02:06:27;-1.20;99.90
5870;DHT22;2961;47.702;9.410;2024-01-30T02:08:54;-1.10;99.90
5870;DHT22;2961;47.702;9.410;2024-01-30T02:11:22;-1.10;99.90
5870;DHT22;2961;47.702;9.410;2024-01-30T02:13:49;-1.20;99.90
5870;DHT22;2961;47.702;9.410;2024-01-30T02:16:16;-1.20;99.90
5870;DHT22;2961;47.702;9.410;2024-01-30T02:18:43;-1.20;99.90
5870;DHT22;2961;47.702;9.410;2024-01-30T02:21:14;-1.20;99.90
5870;DHT22;2961;47.702;9.410;2024-01-30T02:23:41;-1.30;99.90
5870;DHT22;2961;47.702;9.410;2024-01-30T02:26:09;-1.20;99.90
5870;DHT22;2961;47.702;9.410;2024-01-30T02:28:36;-1.30;99.90
5870;DHT22;2961;47.702;9.410;2024-01-30T02:31:03;-1.30;99.90
5870;DHT22;2961;47.702;9.410;2024-01-30T02:33:30;-1.40;99.90
5870;DHT22;2961;47.702;9.410;2024-01-30T02:35:57;-1.50;99.90
5870;DHT22;2961;47.702;9.410;2024-01-30T02:38:25;-1.50;99.90
5870;DHT22;2961;47.702;9.410;2024-01-30T02:40:54;-1.50;99.90
5870;DHT22;2961;47.702;9.410;2024-01-30T02:43:21;-1.60;99.90
5870;DHT22;2961;47.702;9.410;2024-01-30T02:45:47;-1.60;99.90
5870;DHT22;2961;47.702;9.410;2024-01-30T02:48:14;-1.60;99.90
5870;DHT22;2961;47.702;9.410;2024-01-30T02:50:41;-1.60;99.90
5870;DHT22;2961;47.702;9.410;2024-01-30T02:53:08;-1.70;99.90
5870;DHT22;2961;47.702;9.410;2024-01-30T02:55:36;-1.80;99.90
5870;DHT22;2961;47.702;9.410;2024-01-30T02:58:03;-1.80;99.90
5870;DHT22;2961;47.702;9.410;2024-01-30T03:00:30;-1.80;99.90
5870;DHT22;2961;47.702;9.410;2024-01-30T03:02:56;-1.90;99.90
5870;DHT22;2961;47.702;9.410;2024-01-30T03:05:23;-1.90;99.90
5870;DHT22;2961;47.702;9.410;2024-01-30T03:07:50;-1.90;99.90
5870;DHT22;2961;47.702;9.410;2024-01-30T03:10:17;-2.00;99.90
5870;DHT22;2961;47.702;9.410;2024-01-30T03:12:45;-1.90;99.90
5870;DHT22;2961;47.702;9.410;2024-01-30T03:15:12;-1.90;99.90
5870;DHT22;2961;47.702;9.410;2024-01-30T03:17:40;-1.90;99.90
5870;DHT22;2961;47.702;9.410;2024-01-30T03:20:07;-2.00;99.90
5870;DHT22;2961;47.702;9.410;2024-01-30T03:22:34;-2.00;99.90
5870;DHT22;2961;47.702;9.410;2024-01-30T03:25:01;-2.00;99.90
5870;DHT22;2961;47.702;9.410;2024-01-30T03:27:28;-2.10;99.90
5870;DHT22;2961;47.702;9.410;2024-01-30T03:29:56;-2.00;99.90
5870;DHT22;2961;47.702;9.410;2024-01-30T03:32:23;-2.00;99.90
5870;DHT22;2961;47.702;9.410;2024-01-30T03:34:50;-2.10;99.90
5870;DHT22;2961;47.702;9.410;2024-01-30T03:37:17;-2.10;99.90
5870;DHT22;2961;47.702;9.410;2024-01-30T03:39:43;-2.20;99.90
5870;DHT22;2961;47.702;9.410;2024-01-30T03:42:10;-2.20;99.90
5870;DHT22;2961;47.702;9.410;2024-01-30T03:44:37;-2.20;99.90
5870;DHT22;2961;47.702;9.410;2024-01-30T03:47:05;-2.20;99.90
5870;DHT22;2961;47.702;9.410;2024-01-30T03:49:32;-2.20;99.90
5870;DHT22;2961;47.702;9.410;2024-01-30T03:51:59;-2.20;99.90
5870;DHT22;2961;47.702;9.410;2024-01-30T03:54:25;-2.20;99.90
5870;DHT22;2961;47.702;9.410;2024-01-30T03:56:52;-2.20;99.90
5870;DHT22;2961;47.702;9.410;2024-01-30T03:59:19;-2.20;99.90
5870;DHT22;2961;47.702;9.410;2024-01-30T04:01:49;-2.20;99.90
5870;DHT22;2961;47.702;9.410;2024-01-30T04:04:18;-2.20;99.90
5870;DHT22;2961;47.702;9.410;2024-01-30T04:06:44;-2.10;99.90
5870;DHT22;2961;47.702;9.410;2024-01-30T04:09:12;-2.10;99.90
5870;DHT22;2961;47.702;9.410;2024-01-30T04:11:40;-2.10;99.90
5870;DHT22;2961;47.702;9.410;2024-01-30T04:14:07;-2.10;99.90
5870;DHT22;2961;47.702;9.410;2024-01-30T04:16:34;-2.20;99.90
5870;DHT22;2961;47.702;9.410;2024-01-30T04:19:01;-2.10;99.90
5870;DHT22;2961;47.702;9.410;2024-01-30T04:21:30;-2.10;99.90
5870;DHT22;2961;47.702;9.410;2024-01-30T04:23:57;-2.00;99.90
5870;DHT22;2961;47.702;9.410;2024-01-30T04:26:24;-2.00;99.90
5870;DHT22;2961;47.702;9.410;2024-01-30T04:28:51;-2.10;99.90
5870;DHT22;2961;47.702;9.410;2024-01-30T04:31:18;-2.10;99.90
5870;DHT22;2961;47.702;9.410;2024-01-30T04:33:45;-2.10;99.90
5870;DHT22;2961;47.702;9.410;2024-01-30T04:36:11;-2.10;99.90
5870;DHT22;2961;47.702;9.410;2024-01-30T04:38:40;-2.10;99.90
5870;DHT22;2961;47.702;9.410;2024-01-30T04:41:07;-2.00;99.90
5870;DHT22;2961;47.702;9.410;2024-01-30T04:43:34;-2.00;99.90
5870;DHT22;2961;47.702;9.410;2024-01-30T04:46:01;-2.00;99.90
5870;DHT22;2961;47.702;9.410;2024-01-30T04:48:28;-2.10;99.90
5870;DHT22;2961;47.702;9.410;2024-01-30T04:50:55;-2.00;99.90
5870;DHT22;2961;47.702;9.410;2024-01-30T04:53:22;-2.10;99.90
5870;DHT22;2961;47.702;9.410;2024-01-30T04:55:50;-2.10;99.90
5870;DHT22;2961;47.702;9.410;2024-01-30T04:58:16;-2.10;99.90
5870;DHT22;2961;47.702;9.410;2024-01-30T05:00:43;-2.10;99.90
5870;DHT22;2961;47.702;9.410;2024-01-30T05:03:11;-2.00;99.90
5870;DHT22;2961;47.702;9.410;2024-01-30T05:05:38;-1.90;99.90
5870;DHT22;2961;47.702;9.410;2024-01-30T05:08:05;-1.90;99.90
5870;DHT22;2961;47.702;9.410;2024-01-30T05:10:32;-1.80;99.90
5870;DHT22;2961;47.702;9.410;2024-01-30T05:13:00;-1.80;99.90
5870;DHT22;2961;47.702;9.410;2024-01-30T05:15:27;-1.80;99.90
5870;DHT22;2961;47.702;9.410;2024-01-30T05:17:54;-1.90;99.90
5870;DHT22;2961;47.702;9.410;2024-01-30T05:20:20;-1.80;99.90
5870;DHT22;2961;47.702;9.410;2024-01-30T05:22:46;-1.90;99.90
5870;DHT22;2961;47.702;9.410;2024-01-30T05:25:13;-1.80;99.90
5870;DHT22;2961;47.702;9.410;2024-01-30T05:27:40;-1.80;99.90
5870;DHT22;2961;47.702;9.410;2024-01-30T05:30:09;-1.80;99.90
5870;DHT22;2961;47.702;9.410;2024-01-30T05:32:36;-1.80;99.90
5870;DHT22;2961;47.702;9.410;2024-01-30T05:35:03;-1.80;99.90
5870;DHT22;2961;47.702;9.410;2024-01-30T05:37:30;-1.80;99.90
5870;DHT22;2961;47.702;9.410;2024-01-30T05:39:57;-1.90;99.90
5870;DHT22;2961;47.702;9.410;2024-01-30T05:42:24;-1.90;99.90
5870;DHT22;2961;47.702;9.410;2024-01-30T05:44:51;-1.90;99.90
5870;DHT22;2961;47.702;9.410;2024-01-30T05:47:19;-1.80;99.90
5870;DHT22;2961;47.702;9.410;2024-01-30T05:49:46;-1.90;99.90
5870;DHT22;2961;47.702;9.410;2024-01-30T05:52:13;-1.90;99.90
5870;DHT22;2961;47.702;9.410;2024-01-30T05:54:40;-1.90;99.90
5870;DHT22;2961;47.702;9.410;2024-01-30T05:57:07;-1.80;99.90
5870;DHT22;2961;47.702;9.410;2024-01-30T05:59:34;-1.80;99.90
5870;DHT22;2961;47.702;9.410;2024-01-30T06:02:01;-1.80;99.90
5870;DHT22;2961;47.702;9.410;2024-01-30T06:04:29;-1.70;99.90
5870;DHT22;2961;47.702;9.410;2024-01-30T06:06:56;-1.70;99.90
5870;DHT22;2961;47.702;9.410;2024-01-30T06:09:23;-1.80;99.90
5870;DHT22;2961;47.702;9.410;2024-01-30T06:11:50;-1.80;99.90
5870;DHT22;2961;47.702;9.410;2024-01-30T06:14:16;-1.80;99.90
5870;DHT22;2961;47.702;9.410;2024-01-30T06:16:43;-1.80;99.90
5870;DHT22;2961;47.702;9.410;2024-01-30T06:19:10;-1.80;99.90
5870;DHT22;2961;47.702;9.410;2024-01-30T06:21:38;-1.80;99.90
5870;DHT22;2961;47.702;9.410;2024-01-30T06:24:05;-2.00;99.90
5870;DHT22;2961;47.702;9.410;2024-01-30T06:26:32;-2.00;99.90
5870;DHT22;2961;47.702;9.410;2024-01-30T06:28:59;-2.00;99.90
5870;DHT22;2961;47.702;9.410;2024-01-30T06:31:25;-2.00;99.90
5870;DHT22;2961;47.702;9.410;2024-01-30T06:33:52;-2.00;99.90
5870;DHT22;2961;47.702;9.410;2024-01-30T06:36:19;-2.00;99.90
5870;DHT22;2961;47.702;9.410;2024-01-30T06:38:47;-1.90;99.90
5870;DHT22;2961;47.702;9.410;2024-01-30T06:41:14;-1.90;99.90
5870;DHT22;2961;47.702;9.410;2024-01-30T06:43:41;-1.90;99.90
5870;DHT22;2961;47.702;9.410;2024-01-30T06:46:10;-2.00;99.90
5870;DHT22;2961;47.702;9.410;2024-01-30T06:48:37;-2.00;99.90
5870;DHT22;2961;47.702;9.410;2024-01-30T06:51:05;-2.00;99.90
5870;DHT22;2961;47.702;9.410;2024-01-30T06:53:32;-2.00;99.90
5870;DHT22;2961;47.702;9.410;2024-01-30T06:56:00;-2.00;99.90
5870;DHT22;2961;47.702;9.410;2024-01-30T06:58:27;-1.90;99.90
5870;DHT22;2961;47.702;9.410;2024-01-30T07:00:54;-2.00;99.90
5870;DHT22;2961;47.702;9.410;2024-01-30T07:03:21;-1.90;99.90
5870;DHT22;2961;47.702;9.410;2024-01-30T07:05:48;-2.00;99.90
5870;DHT22;2961;47.702;9.410;2024-01-30T07:08:15;-1.90;99.90
5870;DHT22;2961;47.702;9.410;2024-01-30T07:10:43;-1.90;99.90
5870;DHT22;2961;47.702;9.410;2024-01-30T07:13:11;-1.80;99.90
5870;DHT22;2961;47.702;9.410;2024-01-30T07:15:38;-1.80;99.90
5870;DHT22;2961;47.702;9.410;2024-01-30T07:18:05;-1.80;99.90
5870;DHT22;2961;47.702;9.410;2024-01-30T07:20:33;-1.70;99.90
5870;DHT22;2961;47.702;9.410;2024-01-30T07:23:01;-1.70;99.90
5870;DHT22;2961;47.702;9.410;2024-01-30T07:25:28;-1.70;99.90
5870;DHT22;2961;47.702;9.410;2024-01-30T07:27:55;-1.60;99.90
5870;DHT22;2961;47.702;9.410;2024-01-30T07:30:24;-1.70;99.90
5870;DHT22;2961;47.702;9.410;2024-01-30T07:32:51;-1.60;99.90
5870;DHT22;2961;47.702;9.410;2024-01-30T07:35:17;-1.60;99.90
5870;DHT22;2961;47.702;9.410;2024-01-30T07:37:44;-1.50;99.90
5870;DHT22;2961;47.702;9.410;2024-01-30T07:40:11;-1.40;99.90
5870;DHT22;2961;47.702;9.410;2024-01-30T07:42:38;-1.30;99.90
5870;DHT22;2961;47.702;9.410;2024-01-30T07:45:05;-1.20;99.90
5870;DHT22;2961;47.702;9.410;2024-01-30T07:47:34;-1.10;99.90
5870;DHT22;2961;47.702;9.410;2024-01-30T07:50:01;-1.00;99.90
5870;DHT22;2961;47.702;9.410;2024-01-30T07:52:27;-1.00;99.90
5870;DHT22;2961;47.702;9.410;2024-01-30T07:58:23;-0.90;99.90
5870;DHT22;2961;47.702;9.410;2024-01-30T08:00:52;-0.80;99.90
5870;DHT22;2961;47.702;9.410;2024-01-30T08:03:20;-0.80;99.90
5870;DHT22;2961;47.702;9.410;2024-01-30T08:05:47;-0.70;99.90
5870;DHT22;2961;47.702;9.410;2024-01-30T08:08:14;-0.60;99.90
5870;DHT22;2961;47.702;9.410;2024-01-30T08:10:41;-0.50;99.90
5870;DHT22;2961;47.702;9.410;2024-01-30T08:13:07;-0.40;99.90
5870;DHT22;2961;47.702;9.410;2024-01-30T08:15:34;-0.30;99.90
5870;DHT22;2961;47.702;9.410;2024-01-30T08:18:01;-0.20;99.90
5870;DHT22;2961;47.702;9.410;2024-01-30T08:20:29;-0.20;99.90
5870;DHT22;2961;47.702;9.410;2024-01-30T08:22:56;-0.20;99.90
5870;DHT22;2961;47.702;9.410;2024-01-30T08:25:23;-0.20;99.90
5870;DHT22;2961;47.702;9.410;2024-01-30T08:27:49;-0.10;99.90
5870;DHT22;2961;47.702;9.410;2024-01-30T08:30:16;0.00;99.90
5870;DHT22;2961;47.702;9.410;2024-01-30T08:32:43;0.00;99.90
5870;DHT22;2961;47.702;9.410;2024-01-30T08:35:10;0.10;99.90
5870;DHT22;2961;47.702;9.410;2024-01-30T08:37:40;0.10;99.90
5870;DHT22;2961;47.702;9.410;2024-01-30T08:40:08;0.10;99.90
5870;DHT22;2961;47.702;9.410;2024-01-30T08:42:34;0.10;99.90
5870;DHT22;2961;47.702;9.410;2024-01-30T08:45:01;0.10;99.90
5870;DHT22;2961;47.702;9.410;2024-01-30T08:47:30;0.20;99.90
5870;DHT22;2961;47.702;9.410;2024-01-30T08:49:57;0.30;99.90
5870;DHT22;2961;47.702;9.410;2024-01-30T08:52:23;0.30;99.90
5870;DHT22;2961;47.702;9.410;2024-01-30T08:54:51;0.40;99.90
5870;DHT22;2961;47.702;9.410;2024-01-30T08:57:18;0.40;99.90
5870;DHT22;2961;47.702;9.410;2024-01-30T08:59:45;0.50;99.90
5870;DHT22;2961;47.702;9.410;2024-01-30T09:02:12;0.40;99.90
5870;DHT22;2961;47.702;9.410;2024-01-30T09:04:41;0.40;99.90
5870;DHT22;2961;47.702;9.410;2024-01-30T09:07:09;0.40;99.90
5870;DHT22;2961;47.702;9.410;2024-01-30T09:09:37;0.40;99.90
5870;DHT22;2961;47.702;9.410;2024-01-30T09:12:07;0.30;99.90
5870;DHT22;2961;47.702;9.410;2024-01-30T09:14:35;0.40;99.90
5870;DHT22;2961;47.702;9.410;2024-01-30T09:17:01;0.40;99.90
5870;DHT22;2961;47.702;9.410;2024-01-30T09:19:28;0.50;99.90
5870;DHT22;2961;47.702;9.410;2024-01-30T09:21:55;0.50;99.90
5870;DHT22;2961;47.702;9.410;2024-01-30T09:24:22;0.50;99.90
5870;DHT22;2961;47.702;9.410;2024-01-30T09:26:48;0.60;99.90
5870;DHT22;2961;47.702;9.410;2024-01-30T09:29:17;0.70;99.90
5870;DHT22;2961;47.702;9.410;2024-01-30T09:31:43;0.80;99.90
5870;DHT22;2961;47.702;9.410;2024-01-30T09:34:10;0.90;99.90
5870;DHT22;2961;47.702;9.410;2024-01-30T09:36:37;0.90;99.90
5870;DHT22;2961;47.702;9.410;2024-01-30T09:39:04;1.00;99.90
5870;DHT22;2961;47.702;9.410;2024-01-30T09:41:32;1.00;99.90
5870;DHT22;2961;47.702;9.410;2024-01-30T09:44:00;1.10;99.90
5870;DHT22;2961;47.702;9.410;2024-01-30T09:46:32;1.10;99.90
5870;DHT22;2961;47.702;9.410;2024-01-30T09:49:00;1.30;99.90
5870;DHT22;2961;47.702;9.410;2024-01-30T09:51:29;1.40;99.90
5870;DHT22;2961;47.702;9.410;2024-01-30T09:53:56;1.60;99.90
5870;DHT22;2961;47.702;9.410;2024-01-30T09:56:23;1.70;99.90
5870;DHT22;2961;47.702;9.410;2024-01-30T09:58:50;1.70;99.90
5870;DHT22;2961;47.702;9.410;2024-01-30T10:01:17;1.70;99.90
5870;DHT22;2961;47.702;9.410;2024-01-30T10:03:46;1.80;99.90
5870;DHT22;2961;47.702;9.410;2024-01-30T10:06:14;1.70;99.90
5870;DHT22;2961;47.702;9.410;2024-01-30T10:08:42;1.70;99.90
5870;DHT22;2961;47.702;9.410;2024-01-30T10:11:09;1.70;99.90
5870;DHT22;2961;47.702;9.410;2024-01-30T10:13:38;1.80;99.90
5870;DHT22;2961;47.702;9.410;2024-01-30T10:16:06;2.00;99.90
5870;DHT22;2961;47.702;9.410;2024-01-30T10:18:33;2.00;99.90
5870;DHT22;2961;47.702;9.410;2024-01-30T10:21:01;2.10;99.90
5870;DHT22;2961;47.702;9.410;2024-01-30T10:23:29;2.20;99.90
5870;DHT22;2961;47.702;9.410;2024-01-30T10:25:56;2.20;99.90
5870;DHT22;2961;47.702;9.410;2024-01-30T10:28:22;2.20;99.90
5870;DHT22;2961;47.702;9.410;2024-01-30T10:30:57;2.20;99.90
5870;DHT22;2961;47.702;9.410;2024-01-30T10:33:25;2.10;99.90
5870;DHT22;2961;47.702;9.410;2024-01-30T10:35:54;2.10;99.90
5870;DHT22;2961;47.702;9.410;2024-01-30T10:38:29;2.10;99.90
5870;DHT22;2961;47.702;9.410;2024-01-30T10:40:57;2.20;99.90
5870;DHT22;2961;47.702;9.410;2024-01-30T10:43:29;2.20;99.90
5870;DHT22;2961;47.702;9.410;2024-01-30T10:45:57;2.30;99.90
5870;DHT22;2961;47.702;9.410;2024-01-30T10:48:32;2.40;99.90
5870;DHT22;2961;47.702;9.410;2024-01-30T10:51:05;2.40;99.90
5870;DHT22;2961;47.702;9.410;2024-01-30T10:53:34;2.30;99.90
5870;DHT22;2961;47.702;9.410;2024-01-30T10:56:03;2.40;99.90
5870;DHT22;2961;47.702;9.410;2024-01-30T10:58:31;2.40;99.90
5870;DHT22;2961;47.702;9.410;2024-01-30T11:00:58;2.40;99.90
5870;DHT22;2961;47.702;9.410;2024-01-30T11:03:25;2.40;99.90
5870;DHT22;2961;47.702;9.410;2024-01-30T11:05:52;2.50;99.90
5870;DHT22;2961;47.702;9.410;2024-01-30T11:08:24;2.60;99.90
5870;DHT22;2961;47.702;9.410;2024-01-30T11:10:57;2.50;99.90
5870;DHT22;2961;47.702;9.410;2024-01-30T11:13:27;2.50;99.90
5870;DHT22;2961;47.702;9.410;2024-01-30T11:15:54;2.60;99.90
5870;DHT22;2961;47.702;9.410;2024-01-30T11:18:24;2.70;99.90
5870;DHT22;2961;47.702;9.410;2024-01-30T11:20:51;3.00;99.90
5870;DHT22;2961;47.702;9.410;2024-01-30T11:23:18;3.00;99.90
5870;DHT22;2961;47.702;9.410;2024-01-30T11:25:44;3.00;99.90
5870;DHT22;2961;47.702;9.410;2024-01-30T11:28:14;2.90;99.90
5870;DHT22;2961;47.702;9.410;2024-01-30T11:30:42;3.10;99.90
5870;DHT22;2961;47.702;9.410;2024-01-30T11:33:10;3.00;99.90
5870;DHT22;2961;47.702;9.410;2024-01-30T11:35:39;3.00;99.90
5870;DHT22;2961;47.702;9.410;2024-01-30T11:38:07;2.90;99.90
5870;DHT22;2961;47.702;9.410;2024-01-30T11:40:35;2.80;99.90
5870;DHT22;2961;47.702;9.410;2024-01-30T11:43:03;2.80;99.90
5870;DHT22;2961;47.702;9.410;2024-01-30T11:45:32;2.90;99.90
5870;DHT22;2961;47.702;9.410;2024-01-30T11:48:00;3.10;99.90
5870;DHT22;2961;47.702;9.410;2024-01-30T11:50:29;3.30;99.90
5870;DHT22;2961;47.702;9.410;2024-01-30T11:52:56;3.30;99.90
5870;DHT22;2961;47.702;9.410;2024-01-30T11:55:24;3.30;99.90
5870;DHT22;2961;47.702;9.410;2024-01-30T11:57:51;3.40;99.90
5870;DHT22;2961;47.702;9.410;2024-01-30T12:00:19;3.40;99.90
5870;DHT22;2961;47.702;9.410;2024-01-30T12:02:50;3.40;99.90
5870;DHT22;2961;47.702;9.410;2024-01-30T12:05:21;3.40;99.90
5870;DHT22;2961;47.702;9.410;2024-01-30T12:07:48;3.50;99.90
5870;DHT22;2961;47.702;9.410;2024-01-30T12:10:15;3.50;99.90
5870;DHT22;2961;47.702;9.410;2024-01-30T12:12:45;3.60;99.90
5870;DHT22;2961;47.702;9.410;2024-01-30T12:15:12;3.60;99.90
5870;DHT22;2961;47.702;9.410;2024-01-30T12:17:40;3.60;99.90
5870;DHT22;2961;47.702;9.410;2024-01-30T12:20:10;3.50;99.90
5870;DHT22;2961;47.702;9.410;2024-01-30T12:22:38;3.60;99.90
5870;DHT22;2961;47.702;9.410;2024-01-30T12:25:07;3.60;99.90
5870;DHT22;2961;47.702;9.410;2024-01-30T12:27:34;3.60;99.90
5870;DHT22;2961;47.702;9.410;2024-01-30T12:30:01;3.60;99.90
5870;DHT22;2961;47.702;9.410;2024-01-30T12:32:31;3.70;99.90
5870;DHT22;2961;47.702;9.410;2024-01-30T12:34:58;3.70;99.90
5870;DHT22;2961;47.702;9.410;2024-01-30T12:37:26;3.70;99.90
5870;DHT22;2961;47.702;9.410;2024-01-30T12:39:55;3.80;99.90
5870;DHT22;2961;47.702;9.410;2024-01-30T12:42:21;3.80;99.90
5870;DHT22;2961;47.702;9.410;2024-01-30T12:44:48;3.80;99.90
5870;DHT22;2961;47.702;9.410;2024-01-30T12:47:15;3.70;99.90
5870;DHT22;2961;47.702;9.410;2024-01-30T12:49:42;3.70;99.90
5870;DHT22;2961;47.702;9.410;2024-01-30T12:52:09;3.70;99.90
5870;DHT22;2961;47.702;9.410;2024-01-30T12:54:38;3.60;99.90
5870;DHT22;2961;47.702;9.410;2024-01-30T12:57:05;3.60;99.90
5870;DHT22;2961;47.702;9.410;2024-01-30T12:59:32;3.60;99.90
5870;DHT22;2961;47.702;9.410;2024-01-30T13:02:01;3.60;99.90
5870;DHT22;2961;47.702;9.410;2024-01-30T13:04:28;3.70;99.90
5870;DHT22;2961;47.702;9.410;2024-01-30T13:06:55;3.80;99.90
5870;DHT22;2961;47.702;9.410;2024-01-30T13:09:23;3.80;99.90
5870;DHT22;2961;47.702;9.410;2024-01-30T13:11:51;3.70;99.90
5870;DHT22;2961;47.702;9.410;2024-01-30T13:14:18;3.70;99.90
5870;DHT22;2961;47.702;9.410;2024-01-30T13:16:45;3.70;99.90
5870;DHT22;2961;47.702;9.410;2024-01-30T13:19:12;3.60;99.90
5870;DHT22;2961;47.702;9.410;2024-01-30T13:21:39;3.60;99.90
5870;DHT22;2961;47.702;9.410;2024-01-30T13:24:06;3.50;99.90
5870;DHT22;2961;47.702;9.410;2024-01-30T13:26:33;3.50;99.90
5870;DHT22;2961;47.702;9.410;2024-01-30T13:29:01;3.40;99.90
5870;DHT22;2961;47.702;9.410;2024-01-30T13:31:29;3.50;99.90
5870;DHT22;2961;47.702;9.410;2024-01-30T13:33:56;3.50;99.90
5870;DHT22;2961;47.702;9.410;2024-01-30T13:36:22;3.50;99.90
5870;DHT22;2961;47.702;9.410;2024-01-30T13:38:49;3.60;99.90
5870;DHT22;2961;47.702;9.410;2024-01-30T13:41:16;3.60;99.90
5870;DHT22;2961;47.702;9.410;2024-01-30T13:43:43;3.50;99.90
5870;DHT22;2961;47.702;9.410;2024-01-30T13:46:11;3.60;99.90
5870;DHT22;2961;47.702;9.410;2024-01-30T13:48:38;3.60;99.90
5870;DHT22;2961;47.702;9.410;2024-01-30T13:51:05;3.60;99.90
5870;DHT22;2961;47.702;9.410;2024-01-30T13:53:32;3.60;99.90
5870;DHT22;2961;47.702;9.410;2024-01-30T13:55:59;3.60;99.90
5870;DHT22;2961;47.702;9.410;2024-01-30T13:58:26;3.50;99.90
5870;DHT22;2961;47.702;9.410;2024-01-30T14:00:52;3.50;99.90
5870;DHT22;2961;47.702;9.410;2024-01-30T14:03:21;3.50;99.90
5870;DHT22;2961;47.702;9.410;2024-01-30T14:05:48;3.60;99.90
5870;DHT22;2961;47.702;9.410;2024-01-30T14:08:15;3.60;99.90
5870;DHT22;2961;47.702;9.410;2024-01-30T14:10:42;3.70;99.90
5870;DHT22;2961;47.702;9.410;2024-01-30T14:13:09;3.60;99.90
5870;DHT22;2961;47.702;9.410;2024-01-30T14:15:37;3.60;99.90
5870;DHT22;2961;47.702;9.410;2024-01-30T14:18:04;3.50;99.90
5870;DHT22;2961;47.702;9.410;2024-01-30T14:20:35;3.60;99.90
5870;DHT22;2961;47.702;9.410;2024-01-30T14:23:01;3.60;99.90
5870;DHT22;2961;47.702;9.410;2024-01-30T14:25:28;3.90;99.90
5870;DHT22;2961;47.702;9.410;2024-01-30T14:27:55;3.80;99.90
5870;DHT22;2961;47.702;9.410;2024-01-30T14:30:22;3.80;99.90
5870;DHT22;2961;47.702;9.410;2024-01-30T14:32:49;3.80;99.90
5870;DHT22;2961;47.702;9.410;2024-01-30T14:35:16;3.70;99.90
5870;DHT22;2961;47.702;9.410;2024-01-30T14:37:44;3.70;99.90
5870;DHT22;2961;47.702;9.410;2024-01-30T14:40:11;3.70;99.90
5870;DHT22;2961;47.702;9.410;2024-01-30T14:42:38;3.70;99.90
5870;DHT22;2961;47.702;9.410;2024-01-30T14:45:06;3.60;99.90
5870;DHT22;2961;47.702;9.410;2024-01-30T14:47:33;3.50;99.90
5870;DHT22;2961;47.702;9.410;2024-01-30T14:50:00;3.50;99.90
5870;DHT22;2961;47.702;9.410;2024-01-30T14:52:27;3.40;99.90
5870;DHT22;2961;47.702;9.410;2024-01-30T14:54:56;3.30;99.90
5870;DHT22;2961;47.702;9.410;2024-01-30T14:57:24;3.30;99.90
5870;DHT22;2961;47.702;9.410;2024-01-30T14:59:51;3.30;99.90
5870;DHT22;2961;47.702;9.410;2024-01-30T15:02:17;3.10;99.90
5870;DHT22;2961;47.702;9.410;2024-01-30T15:04:44;3.10;99.90
5870;DHT22;2961;47.702;9.410;2024-01-30T15:07:11;3.10;99.90
5870;DHT22;2961;47.702;9.410;2024-01-30T15:09:38;3.20;99.90
5870;DHT22;2961;47.702;9.410;2024-01-30T15:12:06;3.10;99.90
5870;DHT22;2961;47.702;9.410;2024-01-30T15:14:33;3.00;99.90
5870;DHT22;2961;47.702;9.410;2024-01-30T15:17:00;2.90;99.90
5870;DHT22;2961;47.702;9.410;2024-01-30T15:19:27;2.90;99.90
5870;DHT22;2961;47.702;9.410;2024-01-30T15:21:54;3.00;99.90
5870;DHT22;2961;47.702;9.410;2024-01-30T15:24:20;2.80;99.90
5870;DHT22;2961;47.702;9.410;2024-01-30T15:26:50;2.80;99.90
5870;DHT22;2961;47.702;9.410;2024-01-30T15:29:18;2.70;99.90
5870;DHT22;2961;47.702;9.410;2024-01-30T15:31:46;2.60;99.90
5870;DHT22;2961;47.702;9.410;2024-01-30T15:34:13;2.50;99.90
5870;DHT22;2961;47.702;9.410;2024-01-30T15:36:40;2.50;99.90
5870;DHT22;2961;47.702;9.410;2024-01-30T15:39:07;2.50;99.90
5870;DHT22;2961;47.702;9.410;2024-01-30T15:41:36;2.50;99.90
5870;DHT22;2961;47.702;9.410;2024-01-30T15:44:03;2.40;99.90
5870;DHT22;2961;47.702;9.410;2024-01-30T15:46:31;2.40;99.90
5870;DHT22;2961;47.702;9.410;2024-01-30T15:48:58;2.40;99.90
5870;DHT22;2961;47.702;9.410;2024-01-30T15:51:26;2.30;99.90
5870;DHT22;2961;47.702;9.410;2024-01-30T15:53:53;2.20;99.90
5870;DHT22;2961;47.702;9.410;2024-01-30T15:56:20;2.20;99.90
5870;DHT22;2961;47.702;9.410;2024-01-30T15:58:47;2.10;99.90
5870;DHT22;2961;47.702;9.410;2024-01-30T16:01:15;2.10;99.90
5870;DHT22;2961;47.702;9.410;2024-01-30T16:03:44;2.10;99.90
5870;DHT22;2961;47.702;9.410;2024-01-30T16:06:11;2.10;99.90
5870;DHT22;2961;47.702;9.410;2024-01-30T16:08:38;2.00;99.90
5870;DHT22;2961;47.702;9.410;2024-01-30T16:11:04;1.90;99.90
5870;DHT22;2961;47.702;9.410;2024-01-30T16:13:31;1.90;99.90